CheckWX is a tool to help pilots better visualize weather data.  It is not intended as a substitute for an official pre-flight weather briefing.

03:14:03 UTC

CYCO METAR
Kugluktuk Airport
Kugluktuk, Canada
Current

48 mins ago

CYCO 260226Z 32005KT 15SM -RA SCT009 BKN031 OVC040 03/01 A2992 RMK CF4SC3SC1 SLP135
Observed
May-26 @ 02:26 UTC
Wind
  • 320° at 5 KTS
Visibility
15 SM
Flight Rules
VFR
Conditions
Light Rain
Cloud Levels
  • Scattered at 900' AGL
  • Broken at 3,100' AGL
  • Overcast at 4,000' AGL
Temperature
C / 37°F
Dewpoint
C / 34°F
Humidity
87%
Altimeter
29.92" Hg
Pressure
1013.22 hPa
Previous

1 hour ago

CYCO 260200Z 28007KT 15SM -RA FEW014 BKN040 BKN065 OVC120 03/01 A2991 RMK SC1SC5SC2AS1 SC TR SLP133
Observed
May-26 @ 02:00 UTC
Wind
  • 280° at 7 KTS
Visibility
15 SM
Flight Rules
VFR
Conditions
Light Rain
Cloud Levels
  • Few at 1,400' AGL
  • Broken at 4,000' AGL
  • Broken at 6,500' AGL
  • Overcast at 12,000' AGL
Temperature
C / 37°F
Dewpoint
C / 34°F
Humidity
87%
Altimeter
29.91" Hg
Pressure
1012.92 hPa
Previous

2 hours ago

CYCO 260100Z 27017KT 15SM -RA OVC066 04/00 A2990 RMK AC8 SLP129
Observed
May-26 @ 01:00 UTC
Wind
  • 270° at 17 KTS
Visibility
15 SM
Flight Rules
VFR
Conditions
Light Rain
Cloud Levels
  • Overcast at 6,600' AGL
Temperature
C / 39°F
Dewpoint
C / 32°F
Humidity
75%
Altimeter
29.9" Hg
Pressure
1012.52 hPa